Time;durP1;ratioP1;P1;durP2;ratioP2;P2;SDS_P1;SDS_P2;PMS_P1;PMS_P2;Temp;Humidity;BMP_temperature;BMP_pressure;BME280_temperature;BME280_humidity;BME280_pressure;Samples;Min_cycle;Max_cycle;Signal;HPM_P1;HPM_P2
2022/12/02 00:00:51;;;;;;;8.83;3.60;;;;;;;;;;5104939;28;20737;-63
2022/12/02 00:03:20;;;;;;;19.00;8.33;;;;;;;;;;5108947;28;20210;-64
2022/12/02 00:05:48;;;;;;;21.80;6.97;;;;;;;;;;5107436;28;20603;-64
2022/12/02 00:08:18;;;;;;;19.30;6.83;;;;;;;;;;5108127;28;20222;-64
2022/12/02 00:10:47;;;;;;;20.83;6.77;;;;;;;;;;5103659;28;20213;-64
2022/12/02 00:13:19;;;;;;;16.77;6.43;;;;;;;;;;5106825;27;20201;-62
2022/12/02 00:15:47;;;;;;;7.07;3.23;;;;;;;;;;5103761;28;20674;-63
2022/12/02 00:18:15;;;;;;;6.07;3.87;;;;;;;;;;5107808;28;20221;-63
2022/12/02 00:20:43;;;;;;;12.83;6.27;;;;;;;;;;5102104;28;20742;-62
2022/12/02 00:23:11;;;;;;;14.10;5.87;;;;;;;;;;5107460;28;20197;-62
2022/12/02 00:25:38;;;;;;;20.63;6.10;;;;;;;;;;5105687;28;20213;-62
2022/12/02 00:28:06;;;;;;;13.37;5.67;;;;;;;;;;5106130;27;20530;-62
2022/12/02 00:30:33;;;;;;;12.10;6.00;;;;;;;;;;5108758;28;20297;-62
2022/12/02 00:33:00;;;;;;;10.67;4.50;;;;;;;;;;5106033;28;20261;-62
2022/12/02 00:35:27;;;;;;;15.07;6.33;;;;;;;;;;5104417;28;20212;-62
2022/12/02 00:37:55;;;;;;;9.87;4.60;;;;;;;;;;5105635;28;20210;-62
2022/12/02 00:40:22;;;;;;;13.70;6.33;;;;;;;;;;5103782;28;20204;-62
2022/12/02 00:42:49;;;;;;;15.33;6.53;;;;;;;;;;5102748;28;20212;-62
2022/12/02 00:48:03;;;;;;;16.10;5.87;;;;;;;;;;5103774;28;20221;-62
2022/12/02 00:50:30;;;;;;;19.57;5.73;;;;;;;;;;5105279;28;20206;-62
2022/12/02 00:52:57;;;;;;;12.03;5.63;;;;;;;;;;5104050;28;20197;-63
2022/12/02 00:55:24;;;;;;;12.23;4.97;;;;;;;;;;5103947;28;20817;-63
2022/12/02 00:57:51;;;;;;;12.60;6.17;;;;;;;;;;5104350;28;20222;-63
2022/12/02 01:00:20;;;;;;;10.47;4.63;;;;;;;;;;5103191;28;20205;-62
2022/12/02 01:02:47;;;;;;;11.53;5.60;;;;;;;;;;5106472;28;20206;-63
2022/12/02 01:05:14;;;;;;;12.90;4.67;;;;;;;;;;5105330;28;20206;-62
2022/12/02 01:07:41;;;;;;;9.57;5.80;;;;;;;;;;5101103;28;20730;-62
2022/12/02 01:10:08;;;;;;;9.77;4.63;;;;;;;;;;5106498;28;20289;-62
2022/12/02 01:12:36;;;;;;;11.20;4.90;;;;;;;;;;5103955;28;20204;-63
2022/12/02 01:15:03;;;;;;;9.40;4.70;;;;;;;;;;5104442;28;20202;-63
2022/12/02 01:17:31;;;;;;;15.73;5.37;;;;;;;;;;5105981;28;20214;-63
2022/12/02 01:19:58;;;;;;;9.63;5.13;;;;;;;;;;5103254;28;20695;-62
2022/12/02 01:22:32;;;;;;;10.17;4.87;;;;;;;;;;5106022;28;20214;-63
2022/12/02 01:24:59;;;;;;;10.17;5.00;;;;;;;;;;5103698;28;20660;-63
2022/12/02 01:27:26;;;;;;;12.27;4.73;;;;;;;;;;5103569;28;20200;-62
2022/12/02 01:29:53;;;;;;;13.87;5.53;;;;;;;;;;5101593;28;20922;-63
2022/12/02 01:32:22;;;;;;;12.37;5.40;;;;;;;;;;5102284;28;20208;-63
2022/12/02 01:34:51;;;;;;;7.93;4.63;;;;;;;;;;5103665;28;20242;-62
2022/12/02 01:37:18;;;;;;;7.23;4.30;;;;;;;;;;5098811;28;20234;-63
2022/12/02 01:39:45;;;;;;;19.30;5.37;;;;;;;;;;5099851;28;20206;-62
2022/12/02 01:42:12;;;;;;;14.23;5.90;;;;;;;;;;5098112;28;20783;-62
2022/12/02 01:44:39;;;;;;;11.93;4.83;;;;;;;;;;5102603;28;20593;-63
2022/12/02 01:47:06;;;;;;;12.60;4.63;;;;;;;;;;5102639;28;20209;-62
2022/12/02 01:49:33;;;;;;;4.43;2.50;;;;;;;;;;5100607;27;20219;-63
2022/12/02 01:52:02;;;;;;;14.83;6.27;;;;;;;;;;5097936;28;20194;-63
2022/12/02 01:54:30;;;;;;;10.20;4.83;;;;;;;;;;5096659;28;20241;-62
2022/12/02 01:56:57;;;;;;;7.53;2.97;;;;;;;;;;5097824;28;20214;-63
2022/12/02 01:59:24;;;;;;;6.27;2.80;;;;;;;;;;5098444;28;20210;-63
2022/12/02 02:01:51;;;;;;;11.80;4.27;;;;;;;;;;5101739;28;20198;-63
2022/12/02 02:04:19;;;;;;;16.30;5.97;;;;;;;;;;5103949;28;20208;-63
2022/12/02 02:06:47;;;;;;;17.63;4.97;;;;;;;;;;5100366;28;20236;-63
2022/12/02 02:09:16;;;;;;;3.40;2.90;;;;;;;;;;5099876;28;20213;-63
2022/12/02 02:11:43;;;;;;;11.93;5.67;;;;;;;;;;5100918;28;20208;-63
2022/12/02 02:14:11;;;;;;;15.63;5.90;;;;;;;;;;5099934;28;20751;-62
2022/12/02 02:16:38;;;;;;;19.20;5.67;;;;;;;;;;5097068;28;20233;-63
2022/12/02 02:19:07;;;;;;;18.83;6.37;;;;;;;;;;5102497;28;20210;-63
2022/12/02 02:21:36;;;;;;;2.73;2.17;;;;;;;;;;5101280;28;20202;-62
2022/12/02 02:24:05;;;;;;;11.83;4.17;;;;;;;;;;5100083;28;20207;-63
2022/12/02 02:26:32;;;;;;;7.80;5.57;;;;;;;;;;5100623;28;20205;-63
2022/12/02 02:29:00;;;;;;;9.37;4.73;;;;;;;;;;5102245;28;20209;-63
2022/12/02 02:31:27;;;;;;;12.73;4.37;;;;;;;;;;5099136;28;20197;-63
2022/12/02 02:33:54;;;;;;;14.43;6.03;;;;;;;;;;5102120;28;20763;-63
2022/12/02 02:36:21;;;;;;;6.00;3.90;;;;;;;;;;5096904;28;20198;-63
2022/12/02 02:38:49;;;;;;;5.77;2.47;;;;;;;;;;5104196;28;20821;-63
2022/12/02 02:41:17;;;;;;;14.97;6.17;;;;;;;;;;5106020;28;20960;-63
2022/12/02 02:43:44;;;;;;;17.87;5.50;;;;;;;;;;5106386;28;20716;-63
2022/12/02 02:46:12;;;;;;;12.63;5.97;;;;;;;;;;5099522;28;20768;-63
2022/12/02 02:48:39;;;;;;;21.07;6.27;;;;;;;;;;5099704;28;21021;-63
2022/12/02 02:51:06;;;;;;;7.80;3.60;;;;;;;;;;5097233;28;20205;-62
2022/12/02 02:53:34;;;;;;;13.50;6.00;;;;;;;;;;5095077;28;20292;-62
2022/12/02 02:56:01;;;;;;;14.80;5.93;;;;;;;;;;5096273;28;20229;-63
2022/12/02 02:58:29;;;;;;;10.83;5.77;;;;;;;;;;5095526;28;20254;-62
2022/12/02 03:00:58;;;;;;;10.03;5.07;;;;;;;;;;5093489;28;20264;-63
2022/12/02 03:03:27;;;;;;;6.03;2.90;;;;;;;;;;5102466;28;20225;-64
2022/12/02 03:05:54;;;;;;;14.57;4.47;;;;;;;;;;5088037;28;20230;-63
2022/12/02 03:08:23;;;;;;;12.73;6.03;;;;;;;;;;5089568;28;20229;-63
2022/12/02 03:10:50;;;;;;;13.30;5.37;;;;;;;;;;5088357;28;20290;-63
2022/12/02 03:13:17;;;;;;;13.20;5.37;;;;;;;;;;5089780;28;20215;-63
2022/12/02 03:15:46;;;;;;;7.63;4.33;;;;;;;;;;5090324;28;20206;-63
2022/12/02 03:18:13;;;;;;;13.60;6.00;;;;;;;;;;5090511;28;20219;-63
2022/12/02 03:20:40;;;;;;;10.40;4.47;;;;;;;;;;5101125;28;20195;-63
2022/12/02 03:23:07;;;;;;;14.77;5.40;;;;;;;;;;5100668;28;20207;-63
2022/12/02 03:25:40;;;;;;;12.10;4.17;;;;;;;;;;5093984;28;20576;-63
2022/12/02 03:28:07;;;;;;;8.93;3.70;;;;;;;;;;5090894;28;20208;-64
2022/12/02 03:30:34;;;;;;;10.07;4.50;;;;;;;;;;5089063;28;20202;-63
2022/12/02 03:33:03;;;;;;;3.80;2.47;;;;;;;;;;5097037;28;20198;-63
2022/12/02 03:35:30;;;;;;;11.57;5.43;;;;;;;;;;5099491;28;20236;-63
2022/12/02 03:37:58;;;;;;;12.30;5.47;;;;;;;;;;5088990;28;20218;-64
2022/12/02 03:40:25;;;;;;;15.17;6.10;;;;;;;;;;5089038;28;20206;-63
2022/12/02 03:42:53;;;;;;;12.20;4.83;;;;;;;;;;5090046;28;20296;-63
2022/12/02 03:45:20;;;;;;;24.53;6.80;;;;;;;;;;5094480;28;20200;-64
2022/12/02 03:47:47;;;;;;;7.97;4.07;;;;;;;;;;5105050;28;20199;-63
2022/12/02 03:50:16;;;;;;;14.57;5.20;;;;;;;;;;5106848;28;20202;-64
2022/12/02 03:52:43;;;;;;;17.27;6.67;;;;;;;;;;5107383;27;20206;-63
2022/12/02 03:55:10;;;;;;;11.87;4.33;;;;;;;;;;5104310;28;20710;-63
2022/12/02 03:57:39;;;;;;;11.23;4.53;;;;;;;;;;5100611;28;20225;-63
2022/12/02 04:00:09;;;;;;;6.23;3.13;;;;;;;;;;5096125;28;20779;-64
2022/12/02 04:02:36;;;;;;;10.43;5.10;;;;;;;;;;5096127;28;20565;-63
2022/12/02 04:05:04;;;;;;;10.20;3.43;;;;;;;;;;5097952;28;20242;-63
2022/12/02 04:07:32;;;;;;;4.93;2.70;;;;;;;;;;5106793;28;20252;-63
2022/12/02 04:09:59;;;;;;;14.53;5.50;;;;;;;;;;5092143;28;20198;-63
2022/12/02 04:12:26;;;;;;;12.77;6.40;;;;;;;;;;5108106;28;20221;-63
2022/12/02 04:14:53;;;;;;;9.73;3.60;;;;;;;;;;5096790;28;20202;-64
2022/12/02 04:17:20;;;;;;;18.43;6.37;;;;;;;;;;5098776;28;20225;-63
2022/12/02 04:19:47;;;;;;;11.60;5.40;;;;;;;;;;5093880;28;20207;-63
2022/12/02 04:22:15;;;;;;;5.63;4.10;;;;;;;;;;5098052;28;20312;-64
2022/12/02 04:24:43;;;;;;;6.23;2.63;;;;;;;;;;5095777;28;20201;-63
2022/12/02 04:27:10;;;;;;;12.57;5.80;;;;;;;;;;5098486;28;20711;-64
2022/12/02 04:29:37;;;;;;;13.57;5.37;;;;;;;;;;5087383;28;20652;-63
2022/12/02 04:32:04;;;;;;;12.93;5.03;;;;;;;;;;5097124;28;20197;-63
2022/12/02 04:34:31;;;;;;;17.77;8.07;;;;;;;;;;5103352;28;20225;-63
2022/12/02 04:36:58;;;;;;;17.93;7.33;;;;;;;;;;5092819;28;20218;-63
2022/12/02 04:39:25;;;;;;;17.70;6.90;;;;;;;;;;5090876;28;20234;-63
2022/12/02 04:41:54;;;;;;;10.50;4.77;;;;;;;;;;5090834;28;20198;-63
2022/12/02 04:44:21;;;;;;;11.93;4.93;;;;;;;;;;5105450;28;20197;-63
2022/12/02 04:46:48;;;;;;;19.67;5.50;;;;;;;;;;5104844;28;20222;-63
2022/12/02 04:49:15;;;;;;;15.60;6.47;;;;;;;;;;5087485;28;20217;-64
2022/12/02 04:51:42;;;;;;;8.63;4.00;;;;;;;;;;5087403;28;20218;-64
2022/12/02 04:54:09;;;;;;;4.93;3.50;;;;;;;;;;5091470;28;20216;-64
2022/12/02 04:56:36;;;;;;;6.90;4.50;;;;;;;;;;5087582;28;20210;-64
2022/12/02 04:59:05;;;;;;;13.90;5.63;;;;;;;;;;5096576;28;20226;-64
2022/12/02 05:01:32;;;;;;;9.87;4.40;;;;;;;;;;5098175;28;20198;-64
2022/12/02 05:03:59;;;;;;;12.13;5.03;;;;;;;;;;5105223;27;20209;-64
2022/12/02 05:06:26;;;;;;;19.93;5.00;;;;;;;;;;5100625;28;20237;-64
2022/12/02 05:08:53;;;;;;;2.70;1.43;;;;;;;;;;5098661;28;20214;-64
2022/12/02 05:11:20;;;;;;;12.73;6.03;;;;;;;;;;5090102;28;20618;-64
2022/12/02 05:13:47;;;;;;;11.17;4.97;;;;;;;;;;5097661;28;20395;-64
2022/12/02 05:16:16;;;;;;;4.57;3.47;;;;;;;;;;5092734;28;20214;-64
2022/12/02 05:18:43;;;;;;;11.07;3.80;;;;;;;;;;5095509;28;20225;-64
2022/12/02 05:21:10;;;;;;;8.37;5.43;;;;;;;;;;5106992;28;20216;-63
2022/12/02 05:23:37;;;;;;;5.50;1.67;;;;;;;;;;5105816;28;20202;-64
2022/12/02 05:26:04;;;;;;;15.23;5.67;;;;;;;;;;5106623;28;20209;-64
2022/12/02 05:28:31;;;;;;;7.57;2.73;;;;;;;;;;5098819;28;20218;-64
2022/12/02 05:30:58;;;;;;;14.60;6.03;;;;;;;;;;5103104;28;20210;-64
2022/12/02 05:33:27;;;;;;;11.50;4.23;;;;;;;;;;5093503;28;20207;-63
2022/12/02 05:35:54;;;;;;;11.40;5.53;;;;;;;;;;5091694;28;20206;-64
2022/12/02 05:38:21;;;;;;;1.23;0.97;;;;;;;;;;5106871;28;20224;-64
2022/12/02 05:40:48;;;;;;;10.53;4.83;;;;;;;;;;5087089;28;20221;-64
2022/12/02 05:43:17;;;;;;;6.20;3.33;;;;;;;;;;5086650;28;20202;-64
2022/12/02 05:45:45;;;;;;;15.90;7.00;;;;;;;;;;5087173;28;20218;-64
2022/12/02 05:48:12;;;;;;;21.60;6.43;;;;;;;;;;5086642;28;20199;-64
2022/12/02 05:50:41;;;;;;;6.27;2.70;;;;;;;;;;5096056;28;20711;-64
2022/12/02 05:53:11;;;;;;;10.03;3.53;;;;;;;;;;5088198;28;20210;-64
2022/12/02 05:55:38;;;;;;;17.13;6.50;;;;;;;;;;5091050;28;20226;-64
2022/12/02 05:58:07;;;;;;;3.17;2.60;;;;;;;;;;5098162;28;20718;-64
2022/12/02 06:00:34;;;;;;;2.20;1.80;;;;;;;;;;5097615;28;20201;-64
2022/12/02 06:03:02;;;;;;;8.10;3.60;;;;;;;;;;5090576;28;20198;-62
2022/12/02 06:05:31;;;;;;;14.40;4.23;;;;;;;;;;5101680;28;20213;-64
2022/12/02 06:08:02;;;;;;;12.37;4.60;;;;;;;;;;5103821;27;20190;-64
2022/12/02 06:10:30;;;;;;;5.30;3.03;;;;;;;;;;5101882;28;20574;-64
2022/12/02 06:12:58;;;;;;;5.67;3.67;;;;;;;;;;5093696;28;20199;-64
2022/12/02 06:15:35;;;;;;;10.30;4.73;;;;;;;;;;5089601;28;20202;-64
2022/12/02 06:18:02;;;;;;;14.37;5.57;;;;;;;;;;5104799;28;20241;-64
2022/12/02 06:20:33;;;;;;;4.90;3.47;;;;;;;;;;5091802;28;20205;-64
2022/12/02 06:23:02;;;;;;;3.90;3.20;;;;;;;;;;5099258;28;20202;-63
2022/12/02 06:25:30;;;;;;;3.50;2.53;;;;;;;;;;5090019;28;20207;-64
2022/12/02 06:28:00;;;;;;;4.67;2.53;;;;;;;;;;5096687;28;20201;-64
2022/12/02 06:30:27;;;;;;;8.47;4.17;;;;;;;;;;5103435;28;20852;-64
2022/12/02 06:32:56;;;;;;;12.17;6.07;;;;;;;;;;5098922;28;20205;-64
2022/12/02 06:35:25;;;;;;;3.00;2.53;;;;;;;;;;5089616;28;20210;-64
2022/12/02 06:37:54;;;;;;;12.90;5.30;;;;;;;;;;5087762;28;20696;-65
2022/12/02 06:40:24;;;;;;;8.00;3.70;;;;;;;;;;5109822;28;20216;-64
2022/12/02 06:42:51;;;;;;;13.33;6.00;;;;;;;;;;5108642;27;20593;-62
2022/12/02 06:45:22;;;;;;;9.20;4.70;;;;;;;;;;5110514;28;20224;-61
2022/12/02 06:47:58;;;;;;;2.43;1.73;;;;;;;;;;5110206;28;20202;-65
2022/12/02 06:50:27;;;;;;;3.27;1.50;;;;;;;;;;5109265;28;20208;-62
2022/12/02 06:52:56;;;;;;;8.80;5.50;;;;;;;;;;5108000;28;20250;-62
2022/12/02 06:55:30;;;;;;;2.23;1.10;;;;;;;;;;5111078;28;20226;-63
2022/12/02 06:57:59;;;;;;;6.17;4.53;;;;;;;;;;5103722;28;20218;-63
2022/12/02 07:00:27;;;;;;;14.03;5.47;;;;;;;;;;5108549;28;20648;-63
2022/12/02 07:02:54;;;;;;;5.77;3.20;;;;;;;;;;5111944;28;20205;-62
2022/12/02 07:05:22;;;;;;;10.27;4.73;;;;;;;;;;5109719;28;20339;-63
2022/12/02 07:07:49;;;;;;;13.03;6.47;;;;;;;;;;5108373;28;20230;-63
2022/12/02 07:10:20;;;;;;;8.07;2.83;;;;;;;;;;5106402;28;20210;-62
2022/12/02 07:12:49;;;;;;;2.63;2.27;;;;;;;;;;5099884;28;20206;-62
2022/12/02 07:15:26;;;;;;;2.47;2.27;;;;;;;;;;5094554;28;20206;-63
2022/12/02 07:17:53;;;;;;;10.50;5.77;;;;;;;;;;5099983;28;20217;-62
2022/12/02 07:20:29;;;;;;;9.53;3.90;;;;;;;;;;5091158;28;20293;-62
2022/12/02 07:22:58;;;;;;;12.27;3.37;;;;;;;;;;5105690;28;20206;-63
2022/12/02 07:25:32;;;;;;;4.57;2.83;;;;;;;;;;5094157;28;20209;-62
2022/12/02 07:28:02;;;;;;;13.60;4.23;;;;;;;;;;5104565;28;20197;-62
2022/12/02 07:30:30;;;;;;;14.77;3.87;;;;;;;;;;5104899;27;20217;-63
2022/12/02 07:32:57;;;;;;;6.47;3.53;;;;;;;;;;5089587;28;20202;-63
2022/12/02 07:35:25;;;;;;;4.57;1.83;;;;;;;;;;5089306;28;20206;-63
2022/12/02 07:37:52;;;;;;;3.77;2.20;;;;;;;;;;5088724;28;20241;-62
2022/12/02 07:40:20;;;;;;;14.60;5.37;;;;;;;;;;5089276;28;20871;-62
2022/12/02 07:42:47;;;;;;;9.03;3.97;;;;;;;;;;5096581;28;20206;-62
2022/12/02 07:45:17;;;;;;;5.70;2.93;;;;;;;;;;5098386;28;20216;-63
2022/12/02 07:47:44;;;;;;;11.07;4.93;;;;;;;;;;5097756;28;20214;-64
2022/12/02 07:50:11;;;;;;;6.10;4.00;;;;;;;;;;5103690;28;20209;-63
2022/12/02 07:52:38;;;;;;;9.20;4.43;;;;;;;;;;5104614;28;20743;-62
2022/12/02 07:55:06;;;;;;;7.80;4.20;;;;;;;;;;5102868;28;20236;-63
2022/12/02 07:57:34;;;;;;;3.20;2.17;;;;;;;;;;5092134;28;20225;-63
2022/12/02 08:00:01;;;;;;;3.13;2.67;;;;;;;;;;5097230;28;20217;-63
2022/12/02 08:02:29;;;;;;;5.07;2.80;;;;;;;;;;5094619;28;20692;-63
2022/12/02 08:04:56;;;;;;;8.97;3.77;;;;;;;;;;5099752;28;20302;-62
2022/12/02 08:07:23;;;;;;;3.50;3.20;;;;;;;;;;5092093;28;20241;-63
2022/12/02 08:09:51;;;;;;;7.57;3.70;;;;;;;;;;5090691;28;20202;-63
2022/12/02 08:12:18;;;;;;;9.27;4.33;;;;;;;;;;5093607;28;20206;-63
2022/12/02 08:14:45;;;;;;;6.17;3.23;;;;;;;;;;5108300;28;20208;-63
2022/12/02 08:17:12;;;;;;;9.23;3.50;;;;;;;;;;5107556;28;20202;-64
2022/12/02 08:19:41;;;;;;;6.43;4.37;;;;;;;;;;5107303;28;20228;-63
2022/12/02 08:22:08;;;;;;;1.30;1.30;;;;;;;;;;5107869;28;20221;-63
2022/12/02 08:24:35;;;;;;;1.87;1.50;;;;;;;;;;5094053;28;20201;-63
2022/12/02 08:27:02;;;;;;;2.80;2.50;;;;;;;;;;5091343;28;20204;-63
2022/12/02 08:29:29;;;;;;;3.73;1.63;;;;;;;;;;5092258;28;20650;-63
2022/12/02 08:31:57;;;;;;;5.80;2.43;;;;;;;;;;5091282;28;20212;-63
2022/12/02 08:34:24;;;;;;;3.80;2.80;;;;;;;;;;5090336;28;21005;-64
2022/12/02 08:36:52;;;;;;;2.07;1.67;;;;;;;;;;5107143;28;20291;-64
2022/12/02 08:39:19;;;;;;;1.67;1.43;;;;;;;;;;5091749;28;20225;-64
2022/12/02 08:41:46;;;;;;;5.07;3.07;;;;;;;;;;5089852;28;20405;-64
2022/12/02 08:44:13;;;;;;;1.20;0.83;;;;;;;;;;5099017;28;20234;-64
2022/12/02 08:46:40;;;;;;;1.13;1.03;;;;;;;;;;5101088;28;20213;-62
2022/12/02 08:49:08;;;;;;;6.90;2.23;;;;;;;;;;5104300;28;20194;-62
2022/12/02 08:51:35;;;;;;;2.40;1.40;;;;;;;;;;5110214;28;20218;-63
2022/12/02 08:54:04;;;;;;;3.43;3.13;;;;;;;;;;5110187;28;20216;-63
2022/12/02 08:56:31;;;;;;;2.17;1.73;;;;;;;;;;5110041;28;20232;-63
2022/12/02 08:58:58;;;;;;;1.80;1.07;;;;;;;;;;5109838;28;20933;-63
2022/12/02 09:01:25;;;;;;;2.37;2.10;;;;;;;;;;5110119;28;20229;-63
2022/12/02 09:03:52;;;;;;;2.03;1.40;;;;;;;;;;5096945;28;20201;-63
2022/12/02 09:06:19;;;;;;;5.07;2.80;;;;;;;;;;5089572;28;20596;-63
2022/12/02 09:08:46;;;;;;;3.97;2.70;;;;;;;;;;5099322;27;20819;-62
2022/12/02 09:11:15;;;;;;;3.23;1.40;;;;;;;;;;5108669;28;20201;-62
2022/12/02 09:13:42;;;;;;;2.27;1.73;;;;;;;;;;5099386;28;20217;-61
2022/12/02 09:16:09;;;;;;;2.47;2.17;;;;;;;;;;5107311;28;20217;-68
2022/12/02 09:18:36;;;;;;;2.53;2.13;;;;;;;;;;5109724;28;20230;-65
2022/12/02 09:21:03;;;;;;;1.63;1.20;;;;;;;;;;5106401;28;20206;-67
2022/12/02 09:23:30;;;;;;;1.30;1.20;;;;;;;;;;5089298;28;20228;-64
2022/12/02 09:25:58;;;;;;;6.23;2.80;;;;;;;;;;5105366;28;20205;-62
2022/12/02 09:28:26;;;;;;;1.50;1.37;;;;;;;;;;5089275;28;20217;-62
2022/12/02 09:30:53;;;;;;;3.37;1.67;;;;;;;;;;5099622;28;20201;-64
2022/12/02 09:33:20;;;;;;;2.03;1.87;;;;;;;;;;5089609;28;20207;-64
2022/12/02 09:35:47;;;;;;;1.90;0.83;;;;;;;;;;5089875;28;20199;-61
2022/12/02 09:38:14;;;;;;;2.00;1.07;;;;;;;;;;5088777;28;20210;-62
2022/12/02 09:40:41;;;;;;;2.40;2.10;;;;;;;;;;5089715;28;20687;-63
2022/12/02 09:43:08;;;;;;;3.37;3.13;;;;;;;;;;5088850;28;20198;-63
2022/12/02 09:45:37;;;;;;;1.43;0.97;;;;;;;;;;5088863;28;20213;-63
2022/12/02 09:48:04;;;;;;;1.83;1.70;;;;;;;;;;5091100;28;20647;-62
2022/12/02 09:50:31;;;;;;;1.10;1.10;;;;;;;;;;5106056;28;20212;-64
2022/12/02 09:53:03;;;;;;;0.90;0.90;;;;;;;;;;5107136;28;20209;-64
2022/12/02 09:55:30;;;;;;;3.77;2.33;;;;;;;;;;5108454;27;20229;-65
2022/12/02 09:57:58;;;;;;;3.50;1.83;;;;;;;;;;5107291;28;20214;-59
2022/12/02 10:00:25;;;;;;;0.33;0.33;;;;;;;;;;5088273;28;20240;-62
2022/12/02 10:02:54;;;;;;;1.20;1.10;;;;;;;;;;5088305;28;20203;-60
2022/12/02 10:05:22;;;;;;;1.60;1.50;;;;;;;;;;5088146;28;20209;-61
2022/12/02 10:07:50;;;;;;;2.87;2.37;;;;;;;;;;5088137;28;20248;-61
2022/12/02 10:10:19;;;;;;;5.60;3.90;;;;;;;;;;5087817;28;20202;-61
2022/12/02 10:12:47;;;;;;;0.03;0.03;;;;;;;;;;5088044;28;20221;-61
2022/12/02 10:15:15;;;;;;;2.10;1.93;;;;;;;;;;5087489;28;20210;-61
2022/12/02 10:17:43;;;;;;;4.50;3.00;;;;;;;;;;5088771;28;20202;-61
2022/12/02 10:20:16;;;;;;;5.00;2.83;;;;;;;;;;5088137;28;20224;-61
2022/12/02 10:22:58;;;;;;;1.60;1.10;;;;;;;;;;5101765;28;20238;-62
2022/12/02 10:25:30;;;;;;;1.97;1.53;;;;;;;;;;5102568;28;20281;-61
2022/12/02 10:27:57;;;;;;;2.83;2.60;;;;;;;;;;5096092;28;20680;-61
2022/12/02 10:30:25;;;;;;;1.13;1.13;;;;;;;;;;5088616;28;20500;-60
2022/12/02 10:32:59;;;;;;;3.33;2.30;;;;;;;;;;5099731;28;20294;-61
2022/12/02 10:35:27;;;;;;;1.70;1.57;;;;;;;;;;5109017;28;20398;-61
2022/12/02 10:37:54;;;;;;;8.83;3.80;;;;;;;;;;5097904;28;20206;-61
2022/12/02 10:40:23;;;;;;;5.27;2.27;;;;;;;;;;5088613;28;20226;-61
2022/12/02 10:43:08;;;;;;;3.37;2.90;;;;;;;;;;5097809;28;20655;-61
2022/12/02 10:45:35;;;;;;;5.93;1.90;;;;;;;;;;5109085;28;20676;-61
2022/12/02 10:48:12;;;;;;;3.40;2.87;;;;;;;;;;5098185;28;20771;-61
2022/12/02 10:50:40;;;;;;;3.20;2.63;;;;;;;;;;5088660;28;20206;-60
2022/12/02 10:53:12;;;;;;;2.77;1.83;;;;;;;;;;5106843;28;20215;-61
2022/12/02 10:55:40;;;;;;;2.43;1.87;;;;;;;;;;5102689;28;20237;-62
2022/12/02 11:01:10;;;;;;;2.60;2.37;;;;;;;;;;5083151;28;20728;-61
2022/12/02 11:03:37;;;;;;;7.33;2.80;;;;;;;;;;5108049;28;20235;-61
2022/12/02 11:06:08;;;;;;;6.80;3.93;;;;;;;;;;5106080;28;20891;-63
2022/12/02 11:08:35;;;;;;;3.00;2.70;;;;;;;;;;5088133;28;20213;-62
2022/12/02 11:11:10;;;;;;;1.87;1.67;;;;;;;;;;5088175;28;20743;-62
2022/12/02 11:13:53;;;;;;;3.87;2.00;;;;;;;;;;5087673;28;20203;-61
2022/12/02 11:16:47;;;;;;;3.37;1.90;;;;;;;;;;5088737;28;20213;-62
2022/12/02 11:19:25;;;;;;;6.47;3.67;;;;;;;;;;5071995;28;20234;-62
2022/12/02 11:21:53;;;;;;;3.77;1.97;;;;;;;;;;5103729;28;20216;-62
2022/12/02 11:24:36;;;;;;;1.30;1.13;;;;;;;;;;5097993;28;20688;-62
2022/12/02 11:27:07;;;;;;;4.10;1.80;;;;;;;;;;5101580;28;20205;-63
2022/12/02 11:29:36;;;;;;;4.93;2.70;;;;;;;;;;5092006;28;20222;-61
2022/12/02 11:32:04;;;;;;;6.97;3.70;;;;;;;;;;5096676;28;20207;-62
2022/12/02 11:34:42;;;;;;;4.83;1.70;;;;;;;;;;5112083;28;20202;-61
2022/12/02 11:37:42;;;;;;;2.10;1.43;;;;;;;;;;5110040;28;20220;-61
2022/12/02 11:40:27;;;;;;;6.67;3.27;;;;;;;;;;5048871;28;20268;-61
2022/12/02 11:43:16;;;;;;;0.20;0.20;;;;;;;;;;5037441;28;20209;-62
2022/12/02 11:45:58;;;;;;;1.40;1.27;;;;;;;;;;5077050;28;20678;-64
2022/12/02 11:48:25;;;;;;;2.47;1.30;;;;;;;;;;5109326;28;20201;-62
2022/12/02 11:50:53;;;;;;;1.40;1.40;;;;;;;;;;5109370;28;20213;-63
2022/12/02 11:53:23;;;;;;;0.97;0.97;;;;;;;;;;5110383;28;20290;-63
2022/12/02 11:55:53;;;;;;;4.13;2.73;;;;;;;;;;5111637;28;20595;-63
2022/12/02 11:58:43;;;;;;;1.93;1.30;;;;;;;;;;5108024;28;20289;-62
2022/12/02 12:01:16;;;;;;;3.80;1.83;;;;;;;;;;5086403;28;20262;-62
2022/12/02 12:03:43;;;;;;;1.53;1.40;;;;;;;;;;5090212;28;20248;-61
2022/12/02 12:06:12;;;;;;;1.07;1.03;;;;;;;;;;5090132;28;20230;-63
2022/12/02 12:08:41;;;;;;;2.00;1.67;;;;;;;;;;5090072;28;20226;-62
2022/12/02 12:11:30;;;;;;;1.47;0.93;;;;;;;;;;5090532;28;20202;-62
2022/12/02 12:14:00;;;;;;;2.20;1.73;;;;;;;;;;5085881;28;20251;-62
2022/12/02 12:16:31;;;;;;;2.23;2.03;;;;;;;;;;5090543;28;20673;-61
2022/12/02 12:18:58;;;;;;;1.60;1.57;;;;;;;;;;5089505;28;20202;-60
2022/12/02 12:21:41;;;;;;;6.10;3.73;;;;;;;;;;5099305;28;20213;-62
2022/12/02 12:24:30;;;;;;;4.17;1.50;;;;;;;;;;5094675;28;20683;-62
2022/12/02 12:26:58;;;;;;;2.97;1.20;;;;;;;;;;5098459;28;20214;-63
2022/12/02 12:29:26;;;;;;;4.37;2.27;;;;;;;;;;5093592;28;20194;-61
2022/12/02 12:31:55;;;;;;;2.13;1.73;;;;;;;;;;5090315;28;20210;-61
2022/12/02 12:34:22;;;;;;;4.60;2.33;;;;;;;;;;5092021;28;20219;-63
2022/12/02 12:36:50;;;;;;;0.13;0.13;;;;;;;;;;5095876;28;20215;-62
2022/12/02 12:39:17;;;;;;;5.37;3.50;;;;;;;;;;5093293;28;20211;-63
2022/12/02 12:41:45;;;;;;;2.30;2.10;;;;;;;;;;5099987;28;20210;-63
2022/12/02 12:44:13;;;;;;;1.93;1.80;;;;;;;;;;5094769;28;20217;-62
2022/12/02 12:46:40;;;;;;;1.57;0.97;;;;;;;;;;5096006;28;20213;-62
2022/12/02 12:49:10;;;;;;;3.20;2.53;;;;;;;;;;5103636;28;20253;-62
2022/12/02 12:51:37;;;;;;;3.87;2.03;;;;;;;;;;5095210;28;20210;-61
2022/12/02 12:54:05;;;;;;;4.87;2.77;;;;;;;;;;5089265;28;20274;-60
2022/12/02 12:56:32;;;;;;;1.63;1.50;;;;;;;;;;5102254;28;20260;-62
2022/12/02 12:59:02;;;;;;;4.27;2.73;;;;;;;;;;5094984;28;20727;-62
2022/12/02 13:01:29;;;;;;;3.63;2.47;;;;;;;;;;5105028;28;20278;-62
2022/12/02 13:03:57;;;;;;;1.33;0.97;;;;;;;;;;5108906;28;20628;-63
2022/12/02 13:06:26;;;;;;;4.07;3.67;;;;;;;;;;5093675;28;20646;-62
2022/12/02 13:08:53;;;;;;;4.90;3.70;;;;;;;;;;5088106;28;20218;-62
2022/12/02 13:11:20;;;;;;;1.23;1.20;;;;;;;;;;5099159;28;20198;-62
2022/12/02 13:13:47;;;;;;;2.27;2.17;;;;;;;;;;5106211;28;20209;-62
2022/12/02 13:16:15;;;;;;;6.93;1.77;;;;;;;;;;5093572;28;20210;-62
2022/12/02 13:18:42;;;;;;;1.63;1.10;;;;;;;;;;5104532;28;20676;-62
2022/12/02 13:21:09;;;;;;;4.23;1.93;;;;;;;;;;5089181;28;20237;-61
2022/12/02 13:23:41;;;;;;;2.63;2.00;;;;;;;;;;5104154;28;20231;-62
2022/12/02 13:26:08;;;;;;;5.57;3.67;;;;;;;;;;5109428;28;20232;-61
2022/12/02 13:28:35;;;;;;;4.53;2.37;;;;;;;;;;5107044;28;20225;-61
2022/12/02 13:31:02;;;;;;;4.40;1.87;;;;;;;;;;5097065;28;20201;-62
2022/12/02 13:33:29;;;;;;;2.30;1.40;;;;;;;;;;5100340;28;20209;-63
2022/12/02 13:35:57;;;;;;;6.03;3.40;;;;;;;;;;5105717;28;20209;-62
2022/12/02 13:38:26;;;;;;;2.87;2.30;;;;;;;;;;5109080;28;20216;-61
2022/12/02 13:40:59;;;;;;;2.37;2.17;;;;;;;;;;5098055;28;20231;-61
2022/12/02 13:43:27;;;;;;;7.10;3.70;;;;;;;;;;5098530;28;20206;-61
2022/12/02 13:45:54;;;;;;;7.07;3.83;;;;;;;;;;5106307;28;20295;-61
2022/12/02 13:48:23;;;;;;;9.57;4.03;;;;;;;;;;5104062;28;20217;-61
2022/12/02 13:50:51;;;;;;;7.30;3.17;;;;;;;;;;5108372;28;20320;-61
2022/12/02 13:53:21;;;;;;;9.10;2.43;;;;;;;;;;5106667;28;20656;-61
2022/12/02 13:55:49;;;;;;;9.30;4.23;;;;;;;;;;5102577;28;20244;-61
2022/12/02 13:58:17;;;;;;;5.20;4.27;;;;;;;;;;5106902;28;20205;-61
2022/12/02 14:00:46;;;;;;;7.57;4.23;;;;;;;;;;5090811;28;20247;-61
2022/12/02 14:03:13;;;;;;;3.43;2.40;;;;;;;;;;5095867;28;20202;-61
2022/12/02 14:05:41;;;;;;;6.93;3.33;;;;;;;;;;5103598;28;20206;-61
2022/12/02 14:08:08;;;;;;;1.40;1.30;;;;;;;;;;5103685;28;20251;-61
2022/12/02 14:10:38;;;;;;;2.60;2.40;;;;;;;;;;5101786;28;20288;-61
2022/12/02 14:13:09;;;;;;;4.47;3.13;;;;;;;;;;5094632;28;20212;-62
2022/12/02 14:15:37;;;;;;;5.50;2.90;;;;;;;;;;5091846;28;20206;-59
2022/12/02 14:18:06;;;;;;;1.70;1.60;;;;;;;;;;5094177;28;20202;-62
2022/12/02 14:20:33;;;;;;;1.40;1.07;;;;;;;;;;5096899;28;20240;-61
2022/12/02 14:23:01;;;;;;;7.57;3.00;;;;;;;;;;5104356;28;20237;-61
2022/12/02 14:25:28;;;;;;;6.03;3.67;;;;;;;;;;5108546;28;20219;-62
2022/12/02 14:27:55;;;;;;;3.83;2.63;;;;;;;;;;5108265;28;20208;-62
2022/12/02 14:30:22;;;;;;;5.30;3.13;;;;;;;;;;5108128;28;20338;-61
2022/12/02 14:32:53;;;;;;;1.57;1.53;;;;;;;;;;5108455;28;20308;-62
2022/12/02 14:35:21;;;;;;;4.53;3.23;;;;;;;;;;5108321;28;20690;-61
2022/12/02 14:37:48;;;;;;;3.30;2.70;;;;;;;;;;5108383;28;20251;-62
2022/12/02 14:40:17;;;;;;;3.73;2.60;;;;;;;;;;5108044;28;20221;-62
2022/12/02 14:42:45;;;;;;;3.63;1.80;;;;;;;;;;5107943;28;20212;-62
2022/12/02 14:45:13;;;;;;;2.80;1.23;;;;;;;;;;5108301;28;20231;-62
2022/12/02 14:47:40;;;;;;;2.53;2.23;;;;;;;;;;5108335;28;20227;-63
2022/12/02 14:50:09;;;;;;;6.17;3.50;;;;;;;;;;5108452;28;20212;-63
2022/12/02 14:52:36;;;;;;;2.67;2.07;;;;;;;;;;5108027;28;20678;-62